createdAt,value
2022-11-09T00:01:39.138Z,10.30
2022-11-09T00:04:07.356Z,10.40
2022-11-09T00:06:35.111Z,10.40
2022-11-09T00:09:07.428Z,10.40
2022-11-09T00:11:36.079Z,10.40
2022-11-09T00:14:03.027Z,10.40
2022-11-09T00:16:29.804Z,10.40
2022-11-09T00:18:56.444Z,10.50
2022-11-09T00:21:24.674Z,10.40
2022-11-09T00:23:52.081Z,10.50
2022-11-09T00:26:19.908Z,10.40
2022-11-09T00:28:46.836Z,10.50
2022-11-09T00:31:19.029Z,10.50
2022-11-09T00:33:53.688Z,10.50
2022-11-09T00:36:21.614Z,10.50
2022-11-09T00:38:51.267Z,10.50
2022-11-09T00:41:18.834Z,10.40
2022-11-09T00:43:45.786Z,10.40
2022-11-09T00:46:13.225Z,10.30
2022-11-09T00:48:40.204Z,10.40
2022-11-09T00:51:07.798Z,10.40
2022-11-09T00:53:34.429Z,10.50
2022-11-09T00:56:05.515Z,10.50
2022-11-09T00:58:36.096Z,10.40
2022-11-09T01:01:14.391Z,10.50
2022-11-09T01:03:41.693Z,10.50
2022-11-09T01:06:13.648Z,10.50
2022-11-09T01:08:40.331Z,10.60
2022-11-09T01:11:08.610Z,10.50
2022-11-09T01:13:37.326Z,10.50
2022-11-09T01:16:09.868Z,10.50
2022-11-09T01:18:37.321Z,10.60
2022-11-09T01:21:05.852Z,10.50
2022-11-09T01:23:33.341Z,10.60
2022-11-09T01:26:02.035Z,10.60
2022-11-09T01:28:28.719Z,10.60
2022-11-09T01:30:55.505Z,10.60
2022-11-09T01:33:22.661Z,10.50
2022-11-09T01:35:49.321Z,10.60
2022-11-09T01:38:15.995Z,10.60
2022-11-09T01:40:42.680Z,10.70
2022-11-09T01:43:16.803Z,10.70
2022-11-09T01:45:55.320Z,10.70
2022-11-09T01:48:47.189Z,10.60
2022-11-09T01:51:25.081Z,10.60
2022-11-09T01:53:58.665Z,10.60
2022-11-09T01:56:27.604Z,10.70
2022-11-09T01:59:09.887Z,10.60
2022-11-09T02:01:36.985Z,10.60
2022-11-09T02:04:30.889Z,10.70
2022-11-09T02:06:58.859Z,10.70
2022-11-09T02:09:43.822Z,10.50
2022-11-09T02:12:10.891Z,10.50
2022-11-09T02:14:39.020Z,10.60
2022-11-09T02:17:06.606Z,10.60
2022-11-09T02:19:33.345Z,10.60
2022-11-09T02:22:00.081Z,10.70
2022-11-09T02:24:27.681Z,10.70
2022-11-09T02:26:54.710Z,10.70
2022-11-09T02:29:26.319Z,10.60
2022-11-09T02:31:57.216Z,10.60
2022-11-09T02:34:24.821Z,10.60
2022-11-09T02:36:51.616Z,10.60
2022-11-09T02:39:23.080Z,10.60
2022-11-09T02:42:10.053Z,10.60
2022-11-09T02:44:41.992Z,10.70
2022-11-09T02:47:08.706Z,10.60
2022-11-09T02:49:35.382Z,10.60
2022-11-09T02:52:02.204Z,10.70
2022-11-09T02:54:29.477Z,10.70
2022-11-09T02:56:56.165Z,10.70
2022-11-09T02:59:22.822Z,10.70
2022-11-09T03:01:49.472Z,10.70
2022-11-09T03:04:16.163Z,10.70
2022-11-09T03:06:42.853Z,10.70
2022-11-09T03:09:11.146Z,10.80
2022-11-09T03:11:39.721Z,10.80
2022-11-09T03:14:07.166Z,10.90
2022-11-09T03:16:33.797Z,10.90
2022-11-09T03:19:00.422Z,10.80
2022-11-09T03:21:28.206Z,10.90
2022-11-09T03:23:55.230Z,10.90
2022-11-09T03:26:22.516Z,10.90
2022-11-09T03:28:49.137Z,11.00
2022-11-09T03:31:15.897Z,11.00
2022-11-09T03:33:42.664Z,11.00
2022-11-09T03:36:09.733Z,10.90
2022-11-09T03:38:36.396Z,10.80
2022-11-09T03:41:03.614Z,10.90
2022-11-09T03:43:30.687Z,10.90
2022-11-09T03:45:57.756Z,11.00
2022-11-09T03:48:24.734Z,10.90
2022-11-09T03:50:51.519Z,10.90
2022-11-09T03:53:18.588Z,11.00
2022-11-09T03:55:45.610Z,10.90
2022-11-09T03:58:13.252Z,11.00
2022-11-09T04:00:40.280Z,11.00
2022-11-09T04:03:06.954Z,10.90
2022-11-09T04:05:33.639Z,10.90
2022-11-09T04:08:00.340Z,10.90
2022-11-09T04:10:27.178Z,11.00
2022-11-09T04:12:53.918Z,10.90
2022-11-09T04:15:21.180Z,10.90
2022-11-09T04:17:59.411Z,11.00
2022-11-09T04:20:28.101Z,11.00
2022-11-09T04:22:56.751Z,11.00
2022-11-09T04:25:23.951Z,11.00
2022-11-09T04:27:57.854Z,11.10
2022-11-09T04:30:28.033Z,11.00
2022-11-09T04:32:56.219Z,11.20
2022-11-09T04:35:23.417Z,11.20
2022-11-09T04:37:55.288Z,11.20
2022-11-09T04:40:23.211Z,11.20
2022-11-09T04:42:50.081Z,11.30
2022-11-09T04:45:16.929Z,11.30
2022-11-09T04:47:43.851Z,11.30
2022-11-09T04:50:10.890Z,11.30
2022-11-09T04:52:37.542Z,11.20
2022-11-09T04:55:05.258Z,11.30
2022-11-09T04:57:31.948Z,11.20
2022-11-09T04:59:58.621Z,11.30
2022-11-09T05:02:25.272Z,11.30
2022-11-09T05:04:51.939Z,11.30
2022-11-09T05:07:18.631Z,11.30
2022-11-09T05:09:45.330Z,11.40
2022-11-09T05:12:15.154Z,11.30
2022-11-09T05:14:41.879Z,11.30
2022-11-09T05:17:08.846Z,11.30
2022-11-09T05:19:35.660Z,11.30
2022-11-09T05:22:22.376Z,11.40
2022-11-09T05:24:51.729Z,11.40
2022-11-09T05:27:18.539Z,11.50
2022-11-09T05:29:45.250Z,11.50
2022-11-09T05:32:11.924Z,11.40
2022-11-09T05:34:38.611Z,11.40
2022-11-09T05:37:05.307Z,11.40
2022-11-09T05:39:31.991Z,11.30
2022-11-09T05:41:58.686Z,11.30
2022-11-09T05:44:25.698Z,11.30
2022-11-09T05:46:52.367Z,11.30
2022-11-09T05:49:19.074Z,11.30
2022-11-09T05:51:45.761Z,11.30
2022-11-09T05:54:12.640Z,11.40
2022-11-09T05:56:39.358Z,11.40
2022-11-09T05:59:06.034Z,11.30
2022-11-09T06:01:32.706Z,11.30
2022-11-09T06:03:59.385Z,11.30
2022-11-09T06:06:26.135Z,11.30
2022-11-09T06:08:52.870Z,11.30
2022-11-09T06:11:24.084Z,11.30
2022-11-09T06:13:52.512Z,12.00
2022-11-09T06:16:19.430Z,12.40
2022-11-09T06:18:46.162Z,12.30
2022-11-09T06:21:12.965Z,12.30
2022-11-09T06:23:39.652Z,12.30
2022-11-09T06:26:09.815Z,12.40
2022-11-09T06:28:38.082Z,12.50
2022-11-09T06:31:06.713Z,12.50
2022-11-09T06:33:35.896Z,12.40
2022-11-09T06:36:04.101Z,12.40
2022-11-09T06:38:31.192Z,11.90
2022-11-09T06:40:59.662Z,11.60
2022-11-09T06:43:27.297Z,11.60
2022-11-09T06:45:54.555Z,11.50
2022-11-09T06:48:21.794Z,11.40
2022-11-09T06:50:48.808Z,11.50
2022-11-09T06:53:16.957Z,11.50
2022-11-09T06:55:49.042Z,11.50
2022-11-09T06:58:18.019Z,11.50
2022-11-09T07:00:45.681Z,11.40
2022-11-09T07:03:15.066Z,11.40
2022-11-09T07:05:41.810Z,11.40
2022-11-09T07:08:09.210Z,11.30
2022-11-09T07:10:36.083Z,11.40
2022-11-09T07:13:05.812Z,11.50
2022-11-09T07:15:33.955Z,11.40
2022-11-09T07:18:02.172Z,11.50
2022-11-09T07:20:30.607Z,11.50
2022-11-09T07:22:57.407Z,11.50
2022-11-09T07:25:25.143Z,11.40
2022-11-09T07:27:51.859Z,11.50
2022-11-09T07:30:18.896Z,11.60
2022-11-09T07:35:32.247Z,11.60
2022-11-09T07:38:02.241Z,11.60
2022-11-09T07:40:29.694Z,11.60
2022-11-09T07:43:00.930Z,11.60
2022-11-09T07:45:29.234Z,11.60
2022-11-09T07:47:57.613Z,11.60
2022-11-09T07:50:24.652Z,11.70
2022-11-09T07:52:51.315Z,11.70
2022-11-09T07:55:18.274Z,11.70
2022-11-09T07:57:47.049Z,11.70
2022-11-09T08:00:15.608Z,11.70
2022-11-09T08:02:48.627Z,11.70
2022-11-09T08:05:15.610Z,11.80
2022-11-09T08:07:42.261Z,11.80
2022-11-09T08:10:09.475Z,11.80
2022-11-09T08:12:37.421Z,11.80
2022-11-09T08:15:05.944Z,11.80
2022-11-09T08:17:32.928Z,11.70
2022-11-09T08:19:59.613Z,11.70
2022-11-09T08:22:26.276Z,11.70
2022-11-09T08:24:52.936Z,11.80
2022-11-09T08:27:19.617Z,11.80
2022-11-09T08:29:46.290Z,11.70
2022-11-09T08:32:13.240Z,11.80
2022-11-09T08:34:40.007Z,11.80
2022-11-09T08:37:06.735Z,11.80
2022-11-09T08:39:33.386Z,11.80
2022-11-09T08:42:00.087Z,11.80
2022-11-09T08:44:26.743Z,11.80
2022-11-09T08:46:53.449Z,11.80
2022-11-09T08:49:20.085Z,11.80
2022-11-09T08:51:46.757Z,11.80
2022-11-09T08:54:15.082Z,11.80
2022-11-09T08:56:41.833Z,11.90
2022-11-09T08:59:08.528Z,11.90
2022-11-09T09:01:35.184Z,12.00
2022-11-09T09:04:01.871Z,12.00
2022-11-09T09:06:31.224Z,12.00
2022-11-09T09:08:58.282Z,12.00
2022-11-09T09:11:25.011Z,12.00
2022-11-09T09:13:51.669Z,12.00
2022-11-09T09:16:18.476Z,12.00
2022-11-09T09:18:48.108Z,12.00
2022-11-09T09:21:15.069Z,12.00
2022-11-09T09:23:41.784Z,12.00
2022-11-09T09:26:08.539Z,12.10
2022-11-09T09:28:35.220Z,12.10
2022-11-09T09:31:02.261Z,12.10
2022-11-09T09:33:29.241Z,12.10
2022-11-09T09:35:57.782Z,12.20
2022-11-09T09:38:28.551Z,12.20
2022-11-09T09:41:03.945Z,12.30
2022-11-09T09:43:43.307Z,12.30
2022-11-09T09:46:16.579Z,12.30
2022-11-09T09:48:48.135Z,12.30
2022-11-09T09:51:20.752Z,12.30
2022-11-09T09:54:09.687Z,12.40
2022-11-09T09:56:40.710Z,12.50
2022-11-09T09:59:16.095Z,12.50
2022-11-09T10:01:44.685Z,12.60
2022-11-09T10:04:21.754Z,12.70
2022-11-09T10:07:17.797Z,12.80
2022-11-09T10:09:57.373Z,12.70
2022-11-09T10:12:59.643Z,12.80
2022-11-09T10:15:54.401Z,12.90
2022-11-09T10:19:03.423Z,12.90
2022-11-09T10:21:52.052Z,12.90
2022-11-09T10:24:41.263Z,13.10
2022-11-09T10:27:36.361Z,13.20
2022-11-09T10:30:14.980Z,13.30
2022-11-09T10:32:44.511Z,13.40
2022-11-09T10:35:17.192Z,13.40
2022-11-09T10:37:46.659Z,13.40
2022-11-09T10:40:28.582Z,13.50
2022-11-09T10:42:56.845Z,13.70
2022-11-09T10:45:32.876Z,13.60
2022-11-09T10:48:00.376Z,13.80
2022-11-09T10:50:36.132Z,13.80
2022-11-09T10:53:11.067Z,14.10
2022-11-09T10:55:38.314Z,14.30
2022-11-09T10:58:25.207Z,14.30
2022-11-09T11:01:13.778Z,14.50
2022-11-09T11:03:42.260Z,14.50
2022-11-09T11:06:16.182Z,14.50
2022-11-09T11:08:45.865Z,14.50
2022-11-09T11:11:33.897Z,14.60
2022-11-09T11:14:23.051Z,14.60
2022-11-09T11:16:52.770Z,14.40
2022-11-09T11:19:46.165Z,14.40
2022-11-09T11:22:13.005Z,14.40
2022-11-09T11:24:56.348Z,14.30
2022-11-09T11:27:32.081Z,14.30
2022-11-09T11:30:28.113Z,14.40
2022-11-09T11:32:55.900Z,14.40
2022-11-09T11:35:38.377Z,14.50
2022-11-09T11:38:15.509Z,14.40
2022-11-09T11:41:07.068Z,14.40
2022-11-09T11:44:00.470Z,14.40
2022-11-09T11:46:47.462Z,14.40
2022-11-09T11:49:35.719Z,14.50
2022-11-09T11:52:28.901Z,14.50
2022-11-09T11:55:20.413Z,14.50
2022-11-09T11:58:12.725Z,14.50
2022-11-09T12:01:11.911Z,14.50
2022-11-09T12:03:50.693Z,14.50
2022-11-09T12:06:45.446Z,14.60
2022-11-09T12:09:44.379Z,14.50
2022-11-09T12:12:26.024Z,14.60
2022-11-09T12:15:01.883Z,14.40
2022-11-09T12:18:06.484Z,14.50
2022-11-09T12:20:55.056Z,14.40
2022-11-09T12:23:47.684Z,14.40
2022-11-09T12:26:23.857Z,14.40
2022-11-09T12:28:59.301Z,14.40
2022-11-09T12:31:43.321Z,14.40
2022-11-09T12:34:32.615Z,14.40
2022-11-09T12:37:14.673Z,14.40
2022-11-09T12:39:47.277Z,14.40
2022-11-09T12:42:31.878Z,14.40
2022-11-09T12:45:04.341Z,14.40
2022-11-09T12:47:40.187Z,14.50
2022-11-09T12:50:13.501Z,14.50
2022-11-09T12:52:40.776Z,14.40
2022-11-09T12:55:55.232Z,14.40
2022-11-09T12:58:30.884Z,14.50
2022-11-09T13:01:00.408Z,14.40
2022-11-09T13:03:30.435Z,14.40
2022-11-09T13:06:16.553Z,14.40
2022-11-09T13:08:55.468Z,14.40
2022-11-09T13:11:46.881Z,14.40
2022-11-09T13:14:22.757Z,14.40
2022-11-09T13:16:50.321Z,14.30
2022-11-09T13:19:35.601Z,14.30
2022-11-09T13:22:23.147Z,14.30
2022-11-09T13:24:59.746Z,14.30
2022-11-09T13:27:46.361Z,14.30
2022-11-09T13:30:25.004Z,14.30
2022-11-09T13:33:16.473Z,14.30
2022-11-09T13:35:43.124Z,14.30
2022-11-09T13:38:16.745Z,14.30
2022-11-09T13:41:00.768Z,14.20
2022-11-09T13:43:36.112Z,14.20
2022-11-09T13:46:28.760Z,14.20
2022-11-09T13:48:55.778Z,14.20
2022-11-09T13:51:46.378Z,14.20
2022-11-09T13:54:36.815Z,14.10
2022-11-09T13:57:06.894Z,14.10
2022-11-09T13:59:46.896Z,14.20
2022-11-09T14:02:18.256Z,14.20
2022-11-09T14:04:45.312Z,14.10
2022-11-09T14:07:25.172Z,14.20
2022-11-09T14:10:35.682Z,14.10
2022-11-09T14:13:27.075Z,14.20
2022-11-09T14:16:03.901Z,14.10
2022-11-09T14:19:04.098Z,14.20
2022-11-09T14:21:51.850Z,14.20
2022-11-09T14:24:32.643Z,14.10
2022-11-09T14:27:11.210Z,14.10
2022-11-09T14:29:46.763Z,14.30
2022-11-09T14:32:27.487Z,14.20
2022-11-09T14:35:10.353Z,14.20
2022-11-09T14:37:37.532Z,14.10
2022-11-09T14:40:04.765Z,14.20
2022-11-09T14:42:31.537Z,14.20
2022-11-09T14:44:58.675Z,14.20
2022-11-09T14:47:32.690Z,14.10
2022-11-09T14:49:59.875Z,14.10
2022-11-09T14:52:29.199Z,14.10
2022-11-09T14:54:56.773Z,14.10
2022-11-09T14:57:24.026Z,14.10
2022-11-09T14:59:51.034Z,14.10
2022-11-09T15:02:20.684Z,14.00
2022-11-09T15:05:06.299Z,14.00
2022-11-09T15:07:34.626Z,14.00
2022-11-09T15:10:06.310Z,14.00
2022-11-09T15:12:33.719Z,14.00
2022-11-09T15:15:03.849Z,14.00
2022-11-09T15:17:45.245Z,13.90
2022-11-09T15:20:11.892Z,13.90
2022-11-09T15:23:01.835Z,13.90
2022-11-09T15:25:30.893Z,13.90
2022-11-09T15:28:12.923Z,13.80
2022-11-09T15:30:54.686Z,13.80
2022-11-09T15:33:26.129Z,13.90
2022-11-09T15:36:01.268Z,13.80
2022-11-09T15:38:31.822Z,13.80
2022-11-09T15:40:59.017Z,13.80
2022-11-09T15:43:27.200Z,13.80
2022-11-09T15:45:54.924Z,13.80
2022-11-09T15:48:22.180Z,13.80
2022-11-09T15:50:49.433Z,13.80
2022-11-09T15:53:16.118Z,13.80
2022-11-09T15:55:42.858Z,13.70
2022-11-09T15:58:19.327Z,13.80
2022-11-09T16:00:46.524Z,13.80
2022-11-09T16:03:13.489Z,13.70
2022-11-09T16:05:40.220Z,13.80
2022-11-09T16:08:07.705Z,13.80
2022-11-09T16:10:37.777Z,13.80
2022-11-09T16:13:06.375Z,13.80
2022-11-09T16:15:35.123Z,13.80
2022-11-09T16:18:02.075Z,13.80
2022-11-09T16:20:29.683Z,13.80
2022-11-09T16:22:56.414Z,13.80
2022-11-09T16:25:23.337Z,13.80
2022-11-09T16:27:51.308Z,13.80
2022-11-09T16:30:19.198Z,13.80
2022-11-09T16:32:45.896Z,13.80
2022-11-09T16:35:26.536Z,13.80
2022-11-09T16:37:55.276Z,13.80
2022-11-09T16:40:22.861Z,13.80
2022-11-09T16:42:51.273Z,13.70
2022-11-09T16:45:19.589Z,13.70
2022-11-09T16:47:52.817Z,13.70
2022-11-09T16:50:19.667Z,13.70
2022-11-09T16:52:46.333Z,13.70
2022-11-09T16:55:13.091Z,13.70
2022-11-09T16:57:39.789Z,13.70
2022-11-09T17:00:08.354Z,13.70
2022-11-09T17:02:35.068Z,13.70
2022-11-09T17:05:01.747Z,13.70
2022-11-09T17:07:28.683Z,13.60
2022-11-09T17:09:55.671Z,13.60
2022-11-09T17:12:22.358Z,13.70
2022-11-09T17:14:48.993Z,13.70
2022-11-09T17:17:21.178Z,13.70
2022-11-09T17:19:49.326Z,13.70
2022-11-09T17:22:16.753Z,13.70
2022-11-09T17:24:43.488Z,13.60
2022-11-09T17:27:11.298Z,13.60
2022-11-09T17:29:38.639Z,13.60
2022-11-09T17:32:07.258Z,13.60
2022-11-09T17:34:34.684Z,13.50
2022-11-09T17:37:04.804Z,13.50
2022-11-09T17:39:33.021Z,13.50
2022-11-09T17:41:59.754Z,13.50
2022-11-09T17:44:26.409Z,13.50
2022-11-09T17:46:53.103Z,13.50
2022-11-09T17:49:19.782Z,13.50
2022-11-09T17:51:46.667Z,13.50
2022-11-09T17:54:14.930Z,13.50
2022-11-09T17:56:41.784Z,13.50
2022-11-09T17:59:08.549Z,13.50
2022-11-09T18:01:41.047Z,13.40
2022-11-09T18:04:11.704Z,13.40
2022-11-09T18:06:38.818Z,13.50
2022-11-09T18:11:52.651Z,13.50
2022-11-09T18:14:19.712Z,13.40
2022-11-09T18:16:46.871Z,13.40
2022-11-09T18:19:13.764Z,13.50
2022-11-09T18:21:41.348Z,13.50
2022-11-09T18:24:08.568Z,13.40
2022-11-09T18:26:35.272Z,13.40
2022-11-09T18:29:01.961Z,13.40
2022-11-09T18:31:28.758Z,13.40
2022-11-09T18:33:55.417Z,13.40
2022-11-09T18:36:23.409Z,13.40
2022-11-09T18:38:52.820Z,13.40
2022-11-09T18:41:22.313Z,13.40
2022-11-09T18:43:50.687Z,13.40
2022-11-09T18:46:19.070Z,13.40
2022-11-09T18:48:49.476Z,13.40
2022-11-09T18:51:16.178Z,13.30
2022-11-09T18:53:44.682Z,13.40
2022-11-09T18:56:18.628Z,13.40
2022-11-09T18:58:46.102Z,13.30
2022-11-09T19:01:13.077Z,13.40
2022-11-09T19:03:39.808Z,13.30
2022-11-09T19:06:08.046Z,13.30
2022-11-09T19:08:53.280Z,13.30
2022-11-09T19:11:20.048Z,13.30
2022-11-09T19:13:46.732Z,13.30
2022-11-09T19:16:14.323Z,13.30
2022-11-09T19:18:41.553Z,13.30
2022-11-09T19:21:34.051Z,13.20
2022-11-09T19:24:00.879Z,13.30
2022-11-09T19:26:28.043Z,13.20
2022-11-09T19:28:54.728Z,13.20
2022-11-09T19:31:23.546Z,13.20
2022-11-09T19:33:50.939Z,13.20
2022-11-09T19:36:34.313Z,13.20
2022-11-09T19:39:01.493Z,13.20
2022-11-09T19:41:29.314Z,13.20
2022-11-09T19:43:58.684Z,13.20
2022-11-09T19:46:27.192Z,13.20
2022-11-09T19:48:53.903Z,13.20
2022-11-09T19:51:20.728Z,13.20
2022-11-09T19:53:55.333Z,13.20
2022-11-09T19:56:24.039Z,13.20
2022-11-09T19:58:52.656Z,13.10
2022-11-09T20:01:19.791Z,13.10
2022-11-09T20:03:51.651Z,13.10
2022-11-09T20:06:20.182Z,13.10
2022-11-09T20:08:47.797Z,13.10
2022-11-09T20:11:36.320Z,13.10
2022-11-09T20:14:04.575Z,13.10
2022-11-09T20:16:32.813Z,13.10
2022-11-09T20:19:00.421Z,13.10
2022-11-09T20:21:27.467Z,13.10
2022-11-09T20:23:54.213Z,13.10
2022-11-09T20:26:20.898Z,13.10
2022-11-09T20:28:47.579Z,13.10
2022-11-09T20:31:19.670Z,13.10
2022-11-09T20:33:46.738Z,13.10
2022-11-09T20:36:13.857Z,13.10
2022-11-09T20:38:41.079Z,13.10
2022-11-09T20:41:10.929Z,13.00
2022-11-09T20:43:38.423Z,13.00
2022-11-09T20:46:07.222Z,13.00
2022-11-09T20:51:21.101Z,12.80
2022-11-09T20:53:50.173Z,12.80
2022-11-09T20:56:18.052Z,12.80
2022-11-09T20:58:44.857Z,12.80
2022-11-09T21:01:17.475Z,12.80
2022-11-09T21:03:44.747Z,12.80
2022-11-09T21:06:12.854Z,12.70
2022-11-09T21:08:39.903Z,12.70
2022-11-09T21:11:07.945Z,12.60
2022-11-09T21:13:34.766Z,12.60
2022-11-09T21:16:15.653Z,12.60
2022-11-09T21:18:42.848Z,12.60
2022-11-09T21:21:23.391Z,12.50
2022-11-09T21:24:09.004Z,12.40
2022-11-09T21:26:54.515Z,12.40
2022-11-09T21:29:42.370Z,12.40
2022-11-09T21:32:11.094Z,12.40
2022-11-09T21:34:37.816Z,12.40
2022-11-09T21:37:04.764Z,12.50
2022-11-09T21:39:31.500Z,12.40
2022-11-09T21:41:58.893Z,12.40
2022-11-09T21:44:27.516Z,12.50
2022-11-09T21:46:54.273Z,12.50
2022-11-09T21:49:21.169Z,12.40
2022-11-09T21:51:48.008Z,12.50
2022-11-09T21:54:14.713Z,12.50
2022-11-09T21:56:41.377Z,12.40
2022-11-09T21:59:08.511Z,12.40
2022-11-09T22:01:35.316Z,12.30
2022-11-09T22:04:02.081Z,12.30
2022-11-09T22:06:28.886Z,12.30
2022-11-09T22:08:55.606Z,12.30
2022-11-09T22:11:45.312Z,12.30
2022-11-09T22:14:36.561Z,12.30
2022-11-09T22:17:05.582Z,12.30
2022-11-09T22:19:51.304Z,12.20
2022-11-09T22:22:18.012Z,12.30
2022-11-09T22:24:45.387Z,12.30
2022-11-09T22:27:12.017Z,12.30
2022-11-09T22:29:38.745Z,12.20
2022-11-09T22:32:06.324Z,12.20
2022-11-09T22:34:33.081Z,12.20
2022-11-09T22:36:59.794Z,12.20
2022-11-09T22:39:26.492Z,12.30
2022-11-09T22:41:53.161Z,12.20
2022-11-09T22:44:19.882Z,12.20
2022-11-09T22:46:48.264Z,12.20
2022-11-09T22:49:15.358Z,12.20
2022-11-09T22:51:43.241Z,12.20
2022-11-09T22:54:10.177Z,12.20
2022-11-09T22:56:36.850Z,12.20
2022-11-09T22:59:03.625Z,12.10
2022-11-09T23:01:30.395Z,12.10
2022-11-09T23:03:57.189Z,12.10
2022-11-09T23:06:23.970Z,12.00
2022-11-09T23:08:50.792Z,12.10
2022-11-09T23:11:22.502Z,12.10
2022-11-09T23:13:54.086Z,12.10
2022-11-09T23:16:21.984Z,12.00
2022-11-09T23:18:55.472Z,12.10
2022-11-09T23:21:29.996Z,12.10
2022-11-09T23:24:01.085Z,12.00
2022-11-09T23:26:28.752Z,11.90
2022-11-09T23:28:55.971Z,11.90
2022-11-09T23:31:26.981Z,11.70
2022-11-09T23:33:56.040Z,11.80
2022-11-09T23:36:24.461Z,11.70
2022-11-09T23:38:51.500Z,11.70
2022-11-09T23:41:18.428Z,11.50
2022-11-09T23:43:49.342Z,11.50
2022-11-09T23:46:17.396Z,11.60
2022-11-09T23:48:44.723Z,11.60
2022-11-09T23:51:11.772Z,11.60
2022-11-09T23:53:39.012Z,11.60
2022-11-09T23:56:10.906Z,11.70
2022-11-09T23:58:38.413Z,11.60
